createdAt,value
2018-05-29T00:00:47.805Z,16.52
2018-05-29T00:05:21.186Z,15.90
2018-05-29T00:09:55.146Z,17.42
2018-05-29T00:14:28.386Z,16.92
2018-05-29T00:19:01.603Z,17.05
2018-05-29T00:23:36.810Z,16.60
2018-05-29T00:28:10.000Z,21.73
2018-05-29T00:32:43.190Z,16.90
2018-05-29T00:37:17.169Z,14.90
2018-05-29T00:41:50.386Z,13.73
2018-05-29T00:46:23.558Z,14.93
2018-05-29T00:50:56.919Z,15.05
2018-05-29T00:55:37.749Z,15.68
2018-05-29T01:00:10.941Z,13.75
2018-05-29T01:04:44.160Z,15.15
2018-05-29T01:09:17.350Z,15.90
2018-05-29T01:13:50.566Z,13.80
2018-05-29T01:18:23.786Z,12.18
2018-05-29T01:22:56.974Z,13.75
2018-05-29T01:27:30.313Z,13.27
2018-05-29T01:32:03.478Z,14.02
2018-05-29T01:36:37.458Z,13.05
2018-05-29T01:41:10.681Z,13.38
2018-05-29T01:45:43.845Z,15.52
2018-05-29T01:50:17.070Z,15.70
2018-05-29T01:54:50.287Z,14.43
2018-05-29T01:59:23.650Z,15.65
2018-05-29T02:03:56.846Z,14.65
2018-05-29T02:08:30.805Z,18.67
2018-05-29T02:13:03.994Z,16.12
2018-05-29T02:17:37.190Z,19.80
2018-05-29T02:22:10.398Z,14.00
2018-05-29T02:26:43.590Z,15.10
2018-05-29T02:31:17.570Z,14.85
2018-05-29T02:35:50.767Z,16.05
2018-05-29T02:40:24.003Z,12.88
2018-05-29T02:44:57.174Z,13.98
2018-05-29T02:49:30.391Z,14.63
2018-05-29T02:54:03.581Z,15.15
2018-05-29T02:58:36.817Z,18.87
2018-05-29T03:03:10.011Z,16.30
2018-05-29T03:07:43.203Z,14.73
2018-05-29T03:12:16.390Z,14.35
2018-05-29T03:16:49.575Z,12.80
2018-05-29T03:21:23.538Z,14.15
2018-05-29T03:25:56.703Z,14.38
2018-05-29T03:30:30.664Z,19.55
2018-05-29T03:35:03.910Z,16.65
2018-05-29T03:39:37.106Z,14.60
2018-05-29T03:44:10.299Z,14.35
2018-05-29T03:48:43.502Z,15.23
2018-05-29T03:53:16.666Z,20.30
2018-05-29T03:57:50.626Z,16.12
2018-05-29T04:02:23.942Z,17.00
2018-05-29T04:06:58.801Z,19.92
2018-05-29T04:11:32.018Z,20.60
2018-05-29T04:16:05.212Z,22.17
2018-05-29T04:20:38.378Z,18.35
2018-05-29T04:25:11.664Z,17.37
2018-05-29T04:29:45.655Z,17.37
2018-05-29T04:34:18.855Z,18.00
2018-05-29T04:38:52.050Z,18.77
2018-05-29T04:43:25.238Z,18.35
2018-05-29T04:47:58.486Z,22.55
2018-05-29T04:52:31.681Z,20.15
2018-05-29T04:57:04.898Z,19.10
2018-05-29T05:01:38.089Z,21.15
2018-05-29T05:06:11.460Z,20.55
2018-05-29T05:10:44.986Z,19.75
2018-05-29T05:15:18.178Z,20.10
2018-05-29T05:19:51.375Z,23.70
2018-05-29T05:24:25.331Z,28.35
2018-05-29T05:28:58.561Z,17.83
2018-05-29T05:33:31.782Z,16.65
2018-05-29T05:38:05.007Z,18.40
2018-05-29T05:42:39.006Z,15.75
2018-05-29T05:47:12.197Z,16.55
2018-05-29T05:51:45.390Z,16.55
2018-05-29T05:56:20.430Z,17.45
2018-05-29T06:00:53.683Z,21.60
2018-05-29T06:05:26.878Z,17.95
2018-05-29T06:10:00.066Z,16.15
2018-05-29T06:14:33.281Z,15.52
2018-05-29T06:19:06.683Z,14.45
2018-05-29T06:23:40.158Z,13.43
2018-05-29T06:28:14.141Z,14.43
2018-05-29T06:32:47.428Z,22.58
2018-05-29T06:37:21.357Z,16.87
2018-05-29T06:41:54.681Z,13.23
2018-05-29T06:46:27.882Z,13.25
2018-05-29T06:51:01.124Z,11.50
2018-05-29T06:55:34.353Z,10.90
2018-05-29T07:00:07.740Z,11.20
2018-05-29T07:04:41.266Z,10.68
2018-05-29T07:09:27.079Z,12.25
2018-05-29T07:14:01.029Z,12.63
2018-05-29T07:18:34.254Z,13.00
2018-05-29T07:23:07.714Z,9.63
2018-05-29T07:27:41.670Z,10.98
2018-05-29T07:32:14.857Z,10.32
2018-05-29T07:36:48.829Z,10.85
2018-05-29T07:41:22.014Z,9.73
2018-05-29T07:45:55.223Z,8.50
2018-05-29T07:50:28.385Z,10.50
2018-05-29T07:55:02.346Z,11.10
2018-05-29T07:59:35.532Z,7.75
2018-05-29T08:04:08.771Z,8.35
2018-05-29T08:08:43.247Z,9.15
2018-05-29T08:13:16.578Z,9.27
2018-05-29T08:17:50.526Z,7.47
2018-05-29T08:22:24.066Z,7.22
2018-05-29T08:26:57.254Z,7.90
2018-05-29T08:31:30.442Z,8.23
2018-05-29T08:36:03.626Z,6.55
2018-05-29T08:40:37.770Z,8.07
2018-05-29T08:45:10.982Z,6.95
2018-05-29T08:49:44.198Z,8.52
2018-05-29T08:54:17.992Z,6.70
2018-05-29T08:58:51.251Z,7.55
2018-05-29T09:03:24.439Z,5.80
2018-05-29T09:07:57.653Z,6.68
2018-05-29T09:12:31.021Z,7.05
2018-05-29T09:17:05.106Z,7.20
2018-05-29T09:21:38.347Z,5.93
2018-05-29T09:26:12.338Z,4.45
2018-05-29T09:30:45.878Z,7.45
2018-05-29T09:35:19.045Z,5.15
2018-05-29T09:39:52.241Z,6.47
2018-05-29T09:44:25.407Z,6.03
2018-05-29T09:48:59.359Z,9.27
2018-05-29T09:53:32.542Z,8.43
2018-05-29T09:58:06.505Z,5.43
2018-05-29T10:02:39.666Z,5.80
2018-05-29T10:07:13.719Z,5.80
2018-05-29T10:11:46.914Z,7.45
2018-05-29T10:16:20.882Z,5.40
2018-05-29T10:20:54.038Z,9.65
2018-05-29T10:25:28.023Z,11.10
2018-05-29T10:30:01.233Z,6.10
2018-05-29T10:34:34.452Z,6.50
2018-05-29T10:39:07.642Z,8.20
2018-05-29T10:43:40.859Z,8.05
2018-05-29T10:48:14.021Z,9.88
2018-05-29T10:52:47.207Z,7.55
2018-05-29T10:57:21.439Z,9.73
2018-05-29T11:01:55.422Z,6.22
2018-05-29T11:06:28.582Z,8.57
2018-05-29T11:11:01.797Z,8.23
2018-05-29T11:15:34.988Z,9.77
2018-05-29T11:20:08.724Z,8.93
2018-05-29T11:24:41.896Z,5.62
2018-05-29T11:29:15.130Z,6.80
2018-05-29T11:33:48.339Z,8.68
2018-05-29T11:38:21.526Z,9.20
2018-05-29T11:42:54.708Z,7.93
2018-05-29T11:47:27.905Z,7.72
2018-05-29T11:52:01.091Z,7.18
2018-05-29T11:56:34.302Z,7.03
2018-05-29T12:01:07.502Z,7.87
2018-05-29T12:05:40.730Z,7.32
2018-05-29T12:10:14.720Z,8.82
2018-05-29T12:14:47.945Z,6.90
2018-05-29T12:19:21.131Z,7.15
2018-05-29T12:23:54.336Z,6.70
2018-05-29T12:28:27.705Z,6.87
2018-05-29T12:33:01.670Z,5.22
2018-05-29T12:37:34.887Z,4.18
2018-05-29T12:42:08.097Z,6.53
2018-05-29T12:46:41.305Z,7.15
2018-05-29T12:51:15.074Z,8.02
2018-05-29T12:55:48.480Z,5.82
2018-05-29T13:00:22.651Z,4.05
2018-05-29T13:04:55.978Z,7.20
2018-05-29T13:09:29.158Z,7.07
2018-05-29T13:14:02.682Z,6.75
2018-05-29T13:18:35.865Z,4.95
2018-05-29T13:23:09.558Z,4.62
2018-05-29T13:27:44.041Z,5.93
2018-05-29T13:32:17.442Z,7.50
2018-05-29T13:36:50.781Z,5.22
2018-05-29T13:41:24.189Z,5.93
2018-05-29T13:45:57.543Z,4.87
2018-05-29T13:50:31.470Z,5.57
2018-05-29T13:55:05.441Z,4.47
2018-05-29T13:59:38.682Z,3.75
2018-05-29T14:04:11.870Z,4.12
2018-05-29T14:08:45.057Z,5.50
2018-05-29T14:13:18.279Z,4.40
2018-05-29T14:17:51.447Z,8.18
2018-05-29T14:22:25.080Z,3.95
2018-05-29T14:26:58.447Z,5.72
2018-05-29T14:31:32.397Z,5.37
2018-05-29T14:36:05.715Z,4.90
2018-05-29T14:40:39.034Z,4.72
2018-05-29T14:45:12.336Z,4.72
2018-05-29T14:49:45.566Z,4.40
2018-05-29T14:54:18.751Z,3.60
2018-05-29T14:58:51.934Z,5.80
2018-05-29T15:03:25.179Z,5.10
2018-05-29T15:07:58.392Z,3.65
2018-05-29T15:12:31.557Z,3.72
2018-05-29T15:17:05.155Z,4.72
2018-05-29T15:21:39.177Z,6.05
2018-05-29T15:26:12.575Z,6.72
2018-05-29T15:30:45.734Z,6.45
2018-05-29T15:35:19.122Z,8.02
2018-05-29T15:39:52.478Z,7.37
2018-05-29T15:44:25.723Z,5.30
2018-05-29T15:48:59.881Z,7.57
2018-05-29T15:53:33.037Z,5.07
2018-05-29T15:58:07.035Z,5.90
2018-05-29T16:02:40.510Z,5.00
2018-05-29T16:07:17.003Z,3.22
2018-05-29T16:11:50.368Z,5.93
2018-05-29T16:16:23.968Z,6.62
2018-05-29T16:20:57.191Z,5.05
2018-05-29T16:25:30.385Z,7.90
2018-05-29T16:30:03.587Z,5.57
2018-05-29T16:34:36.976Z,4.95
2018-05-29T16:39:10.463Z,5.43
2018-05-29T16:43:43.644Z,6.05
2018-05-29T16:48:16.838Z,5.53
2018-05-29T16:52:50.205Z,7.32
2018-05-29T16:57:23.386Z,6.87
2018-05-29T17:01:57.341Z,6.25
2018-05-29T17:06:30.529Z,11.27
2018-05-29T17:11:03.782Z,6.80
2018-05-29T17:15:38.266Z,5.45
2018-05-29T17:20:13.687Z,7.10
2018-05-29T17:24:46.994Z,5.70
2018-05-29T17:29:20.948Z,5.55
2018-05-29T17:33:54.960Z,3.35
2018-05-29T17:38:28.387Z,4.60
2018-05-29T17:43:01.637Z,3.85
2018-05-29T17:47:34.892Z,4.22
2018-05-29T17:52:08.860Z,6.78
2018-05-29T17:56:42.023Z,5.12
2018-05-29T18:01:15.971Z,6.28
2018-05-29T18:05:49.176Z,6.20
2018-05-29T18:10:22.377Z,7.05
2018-05-29T18:14:55.581Z,4.80
2018-05-29T18:19:28.801Z,3.87
2018-05-29T18:24:02.004Z,3.47
2018-05-29T18:28:35.200Z,4.50
2018-05-29T18:33:08.421Z,5.55
2018-05-29T18:37:41.623Z,7.40
2018-05-29T18:42:14.841Z,3.75
2018-05-29T18:46:48.145Z,3.47
2018-05-29T18:51:21.366Z,5.47
2018-05-29T18:55:54.521Z,3.80
2018-05-29T19:00:28.480Z,6.55
2018-05-29T19:05:01.706Z,9.73
2018-05-29T19:09:34.938Z,8.55
2018-05-29T19:14:08.164Z,5.00
2018-05-29T19:18:42.142Z,8.32
2018-05-29T19:23:15.422Z,6.62
2018-05-29T19:27:48.606Z,6.35
2018-05-29T19:32:22.611Z,7.50
2018-05-29T19:36:56.018Z,7.78
2018-05-29T19:41:29.247Z,8.52
2018-05-29T19:46:03.238Z,6.55
2018-05-29T19:50:37.071Z,8.32
2018-05-29T19:55:11.535Z,5.87
2018-05-29T19:59:45.504Z,8.13
2018-05-29T20:04:19.026Z,6.47
2018-05-29T20:08:52.209Z,6.20
2018-05-29T20:13:25.485Z,7.03
2018-05-29T20:17:59.117Z,8.00
2018-05-29T20:22:32.350Z,5.97
2018-05-29T20:27:05.702Z,6.35
2018-05-29T20:31:40.418Z,7.07
2018-05-29T20:36:13.651Z,5.78
2018-05-29T20:40:47.800Z,4.65
2018-05-29T20:45:21.048Z,8.38
2018-05-29T20:49:54.541Z,8.40
2018-05-29T20:54:27.755Z,9.43
2018-05-29T20:59:00.958Z,7.53
2018-05-29T21:03:34.153Z,8.27
2018-05-29T21:08:07.362Z,7.68
2018-05-29T21:12:40.739Z,7.35
2018-05-29T21:17:13.908Z,11.15
2018-05-29T21:21:47.127Z,7.45
2018-05-29T21:26:20.334Z,9.35
2018-05-29T21:30:53.769Z,7.00
2018-05-29T21:35:26.965Z,4.85
2018-05-29T21:40:00.131Z,8.88
2018-05-29T21:44:33.594Z,6.97
2018-05-29T21:49:08.285Z,5.62
2018-05-29T21:53:42.204Z,5.85
2018-05-29T21:58:15.379Z,8.93
2018-05-29T22:02:49.325Z,7.68
2018-05-29T22:07:22.610Z,9.63
2018-05-29T22:11:56.590Z,5.75
2018-05-29T22:16:29.769Z,7.43
2018-05-29T22:21:03.023Z,5.62
2018-05-29T22:25:36.198Z,8.70
2018-05-29T22:30:09.405Z,7.50
2018-05-29T22:34:42.593Z,6.07
2018-05-29T22:39:15.783Z,10.27
2018-05-29T22:43:49.729Z,6.95
2018-05-29T22:48:22.931Z,11.10
2018-05-29T22:52:56.245Z,10.98
2018-05-29T22:57:29.465Z,5.62
2018-05-29T23:02:02.830Z,6.93
2018-05-29T23:06:36.802Z,8.18
2018-05-29T23:11:10.097Z,7.95
2018-05-29T23:15:43.275Z,7.43
2018-05-29T23:20:17.222Z,9.38
2018-05-29T23:24:50.426Z,8.32
2018-05-29T23:29:23.613Z,5.47
2018-05-29T23:33:57.745Z,5.75
2018-05-29T23:38:31.703Z,6.65
2018-05-29T23:43:04.906Z,4.93
2018-05-29T23:47:38.090Z,6.72
2018-05-29T23:52:11.274Z,5.93
2018-05-29T23:56:45.193Z,5.60
